Time;durP1;ratioP1;P1;durP2;ratioP2;P2;SDS_P1;SDS_P2;PMS_P1;PMS_P2;Temp;Humidity;BMP_temperature;BMP_pressure;BME280_temperature;BME280_humidity;BME280_pressure;Samples;Min_cycle;Max_cycle;Signal;HPM_P1;HPM_P2
2022/11/02 00:01:42;;;;;;;13.00;1.92;;;12.60;99.90;;;;;;5091330;28;20082;-75
2022/11/02 00:04:08;;;;;;;11.40;1.83;;;12.50;99.90;;;;;;5109904;28;20051;-75
2022/11/02 00:06:34;;;;;;;5.53;1.42;;;12.50;99.90;;;;;;5109873;28;20055;-75
2022/11/02 00:08:59;;;;;;;10.30;1.63;;;12.50;99.90;;;;;;5109807;28;20130;-75
2022/11/02 00:11:25;;;;;;;11.05;1.67;;;12.40;99.90;;;;;;5109788;28;20208;-76
2022/11/02 00:13:51;;;;;;;10.20;1.40;;;12.40;99.90;;;;;;5109950;28;20118;-75
2022/11/02 00:16:19;;;;;;;7.28;1.70;;;12.40;99.90;;;;;;5109622;28;20438;-75
2022/11/02 00:18:49;;;;;;;5.90;1.25;;;12.40;99.90;;;;;;5110943;28;20204;-75
2022/11/02 00:21:17;;;;;;;10.07;1.25;;;12.30;99.90;;;;;;5113791;28;20047;-78
2022/11/02 00:23:44;;;;;;;7.40;1.67;;;11.90;99.90;;;;;;5113552;28;20065;-76
2022/11/02 00:26:09;;;;;;;6.35;1.00;;;12.20;99.90;;;;;;5113446;28;20050;-78
2022/11/02 00:28:35;;;;;;;4.50;0.88;;;12.00;99.90;;;;;;5113798;28;20048;-80
2022/11/02 00:31:01;;;;;;;10.98;1.50;;;11.90;99.90;;;;;;5094754;28;20047;-79
2022/11/02 00:33:26;;;;;;;4.82;1.08;;;11.90;99.90;;;;;;5113138;28;20164;-74
2022/11/02 00:35:53;;;;;;;6.20;1.23;;;11.80;99.90;;;;;;5095016;28;20141;-77
2022/11/02 00:38:19;;;;;;;6.25;1.15;;;11.80;99.90;;;;;;5113343;28;20043;-82
2022/11/02 00:40:45;;;;;;;7.32;1.05;;;11.70;99.90;;;;;;5113167;28;20050;-77
2022/11/02 00:43:10;;;;;;;3.42;0.80;;;11.70;99.90;;;;;;5113697;28;20432;-76
2022/11/02 00:45:36;;;;;;;7.50;1.10;;;11.70;99.90;;;;;;5113221;28;20130;-77
2022/11/02 00:48:02;;;;;;;8.25;1.00;;;11.70;99.90;;;;;;5113247;28;20047;-78
2022/11/02 00:50:27;;;;;;;5.95;1.02;;;11.60;99.90;;;;;;5113487;28;20096;-81
2022/11/02 00:52:53;;;;;;;9.05;1.15;;;11.80;99.90;;;;;;5113443;28;20063;-77
2022/11/02 00:55:19;;;;;;;7.25;1.13;;;11.50;99.90;;;;;;5113109;28;20576;-80
2022/11/02 00:57:45;;;;;;;4.85;0.95;;;11.50;99.90;;;;;;5112995;28;20047;-76
2022/11/02 01:00:11;;;;;;;6.95;1.02;;;11.40;99.90;;;;;;5112421;28;20073;-76
2022/11/02 01:02:37;;;;;;;5.30;0.95;;;11.40;99.90;;;;;;5112969;28;20048;-76
2022/11/02 01:05:05;;;;;;;6.28;0.82;;;11.40;99.90;;;;;;5112703;28;20126;-81
2022/11/02 01:07:30;;;;;;;4.60;0.88;;;11.30;99.90;;;;;;5112706;28;20059;-78
2022/11/02 01:09:56;;;;;;;8.43;0.90;;;11.30;99.90;;;;;;5112581;28;20043;-78
2022/11/02 01:12:23;;;;;;;10.25;1.23;;;11.30;99.90;;;;;;5112481;28;20045;-80
2022/11/02 01:14:49;;;;;;;3.85;0.65;;;11.30;99.90;;;;;;5112658;28;20044;-76
2022/11/02 01:17:15;;;;;;;4.72;1.33;;;11.30;99.90;;;;;;5112732;28;20139;-76
2022/11/02 01:19:41;;;;;;;2.17;0.65;;;11.20;99.90;;;;;;5112169;28;20138;-79
2022/11/02 01:22:07;;;;;;;5.18;0.82;;;11.50;99.90;;;;;;5112508;28;20161;-79
2022/11/02 01:24:32;;;;;;;5.60;0.82;;;11.20;99.90;;;;;;5112377;28;20074;-79
2022/11/02 01:26:58;;;;;;;2.33;0.70;;;11.40;99.90;;;;;;5112316;28;20043;-78
2022/11/02 01:29:24;;;;;;;5.25;0.82;;;11.10;99.90;;;;;;5112411;28;20442;-79
2022/11/02 01:31:51;;;;;;;3.80;0.70;;;11.50;99.90;;;;;;5112144;28;20528;-80
2022/11/02 01:34:17;;;;;;;5.45;0.70;;;11.10;99.90;;;;;;5112445;28;20075;-77
2022/11/02 01:36:45;;;;;;;2.17;0.60;;;11.10;99.90;;;;;;5112495;28;20085;-77
2022/11/02 01:39:11;;;;;;;1.67;0.60;;;11.10;99.90;;;;;;5112259;28;20054;-76
2022/11/02 01:41:37;;;;;;;5.35;0.88;;;11.00;99.90;;;;;;5112005;28;20429;-77
2022/11/02 01:44:04;;;;;;;3.35;0.57;;;11.00;99.90;;;;;;5112173;28;20036;-75
2022/11/02 01:46:41;;;;;;;5.43;0.75;;;11.00;99.90;;;;;;5093774;28;20126;-79
2022/11/02 01:49:18;;;;;;;2.67;0.60;;;11.00;99.90;;;;;;5111905;28;20047;-81
2022/11/02 01:52:08;;;;;;;3.72;0.60;;;11.00;99.90;;;;;;5111922;28;20062;-79
2022/11/02 01:54:44;;;;;;;4.40;0.80;;;11.00;99.90;;;;;;5111898;28;20082;-76
2022/11/02 01:57:16;;;;;;;8.32;1.10;;;11.00;99.90;;;;;;5111978;28;20047;-82
2022/11/02 01:59:55;;;;;;;4.38;1.00;;;11.00;99.90;;;;;;5111572;28;20076;-77
2022/11/02 02:02:24;;;;;;;6.43;0.90;;;11.40;99.90;;;;;;5093198;28;20047;-80
2022/11/02 02:05:02;;;;;;;2.80;0.88;;;11.00;99.90;;;;;;5111365;28;20046;-81
2022/11/02 02:07:30;;;;;;;3.78;1.00;;;11.00;99.90;;;;;;5111458;28;20143;-78
2022/11/02 02:09:56;;;;;;;2.80;0.82;;;11.00;99.90;;;;;;5111354;28;20058;-80
2022/11/02 02:12:23;;;;;;;6.22;1.50;;;11.00;99.90;;;;;;5111674;28;20122;-82
2022/11/02 02:14:49;;;;;;;5.10;1.10;;;11.00;99.90;;;;;;5111482;28;20051;-76
2022/11/02 02:17:21;;;;;;;5.38;1.10;;;10.90;99.90;;;;;;5111243;28;20455;-76
2022/11/02 02:19:55;;;;;;;11.77;1.30;;;10.90;99.90;;;;;;5092725;28;20126;-77
2022/11/02 02:22:35;;;;;;;7.43;1.00;;;10.90;99.90;;;;;;5111405;28;20437;-76
2022/11/02 02:25:04;;;;;;;7.20;1.40;;;10.90;99.90;;;;;;5111599;28;20052;-75
2022/11/02 02:27:53;;;;;;;6.70;1.02;;;11.20;99.90;;;;;;5111530;28;20044;-77
2022/11/02 02:30:19;;;;;;;4.03;1.48;;;10.90;99.90;;;;;;5096013;28;20047;-80
2022/11/02 02:33:05;;;;;;;5.60;1.40;;;11.30;99.90;;;;;;5111697;28;20044;-78
2022/11/02 02:36:06;;;;;;;7.32;2.08;;;10.90;99.90;;;;;;5111135;28;20083;-77
2022/11/02 02:38:48;;;;;;;6.18;1.52;;;10.90;99.90;;;;;;5027925;28;20048;-76
2022/11/02 02:41:39;;;;;;;7.13;1.60;;;10.90;99.90;;;;;;5011103;28;20065;-80
2022/11/02 02:44:13;;;;;;;10.32;1.80;;;10.90;99.90;;;;;;5028117;28;20499;-78
2022/11/02 02:46:45;;;;;;;7.63;2.03;;;11.00;99.90;;;;;;5028013;28;20068;-78
2022/11/02 02:49:19;;;;;;;8.38;1.48;;;10.90;99.90;;;;;;5028030;28;20045;-78
2022/11/02 02:51:45;;;;;;;8.40;1.55;;;10.90;99.90;;;;;;5027482;28;20045;-78
2022/11/02 02:54:18;;;;;;;7.25;1.48;;;10.90;99.90;;;;;;5027793;28;20060;-76
2022/11/02 02:56:52;;;;;;;6.53;1.13;;;11.00;99.90;;;;;;5027964;28;20048;-80
2022/11/02 02:59:28;;;;;;;5.47;1.17;;;10.90;99.90;;;;;;5027236;28;20068;-76
2022/11/02 03:01:54;;;;;;;3.70;0.82;;;11.00;99.90;;;;;;5026590;28;20053;-79
2022/11/02 03:04:20;;;;;;;4.28;0.90;;;11.20;99.90;;;;;;5027521;28;20052;-81
2022/11/02 03:06:53;;;;;;;4.47;1.02;;;10.90;99.90;;;;;;5027276;28;20049;-76
2022/11/02 03:09:28;;;;;;;3.80;0.73;;;10.90;99.90;;;;;;5027808;28;20056;-81
2022/11/02 03:12:04;;;;;;;6.25;0.68;;;10.80;99.90;;;;;;5042560;28;20059;-77
2022/11/02 03:15:21;;;;;;;4.63;0.47;;;10.80;99.90;;;;;;5090136;28;20563;-78
2022/11/02 03:18:08;;;;;;;5.15;0.63;;;10.70;99.90;;;;;;5027388;28;20107;-79
2022/11/02 03:20:40;;;;;;;6.22;0.93;;;10.70;99.90;;;;;;5027267;28;20054;-79
2022/11/02 03:23:14;;;;;;;3.40;0.75;;;10.80;99.90;;;;;;5010614;28;20144;-78
2022/11/02 03:26:00;;;;;;;4.05;0.60;;;10.70;99.90;;;;;;5027556;28;20091;-79
2022/11/02 03:28:59;;;;;;;8.27;0.93;;;10.60;99.90;;;;;;5027507;28;20057;-78
2022/11/02 03:31:45;;;;;;;8.48;1.00;;;10.60;99.90;;;;;;4999048;28;20185;-79
2022/11/02 03:34:24;;;;;;;5.53;1.48;;;10.60;99.90;;;;;;4987908;28;20124;-75
2022/11/02 03:37:00;;;;;;;7.40;0.85;;;10.60;99.90;;;;;;4988067;28;20054;-83
2022/11/02 03:39:42;;;;;;;8.80;1.10;;;10.60;99.90;;;;;;4999320;28;20057;-76
2022/11/02 03:42:12;;;;;;;5.40;1.00;;;10.60;99.90;;;;;;4988131;28;20065;-78
2022/11/02 03:44:39;;;;;;;8.60;1.20;;;10.60;99.90;;;;;;4988019;28;20509;-80
2022/11/02 03:47:09;;;;;;;11.05;1.50;;;10.60;99.90;;;;;;4999557;28;20488;-78
2022/11/02 03:49:38;;;;;;;8.63;1.30;;;10.80;99.90;;;;;;4990946;28;20058;-77
2022/11/02 03:52:09;;;;;;;8.73;1.00;;;10.60;99.90;;;;;;5007250;28;20042;-77
2022/11/02 03:54:51;;;;;;;13.23;1.33;;;10.50;99.90;;;;;;5050245;28;20481;-77
2022/11/02 03:57:27;;;;;;;12.52;1.42;;;10.60;99.90;;;;;;5055026;28;20045;-79
2022/11/02 04:00:12;;;;;;;7.85;1.17;;;10.50;99.90;;;;;;5070820;28;20898;-78
2022/11/02 04:02:39;;;;;;;10.15;1.40;;;10.50;99.90;;;;;;5086519;28;20134;-79
2022/11/02 04:05:05;;;;;;;11.25;1.42;;;10.50;99.90;;;;;;5090443;28;20213;-79
2022/11/02 04:08:19;;;;;;;11.10;1.55;;;10.50;99.90;;;;;;5093485;28;20546;-79
2022/11/02 04:10:19;;;;;;;6.35;1.85;;;10.60;99.90;;;;;;5113547;28;20190;-80
2022/11/02 04:15:29;;;;;;;12.02;1.45;;;10.60;99.90;;;;;;5114187;28;20445;-76
2022/11/02 04:20:39;;;;;;;7.10;1.20;;;10.70;99.90;;;;;;5113574;28;20062;-76
2022/11/02 04:25:55;;;;;;;7.93;1.20;;;10.70;99.90;;;;;;5094875;28;20070;-76
2022/11/02 04:28:21;;;;;;;12.95;1.05;;;11.00;99.90;;;;;;5113782;28;20071;-78
2022/11/02 04:30:47;;;;;;;13.02;1.38;;;10.70;99.90;;;;;;5113541;28;20386;-79
2022/11/02 04:33:34;;;;;;;11.93;1.60;;;10.80;99.90;;;;;;5095119;28;20044;-78
2022/11/02 04:36:05;;;;;;;9.27;1.15;;;10.70;99.90;;;;;;5113136;28;20047;-80
2022/11/02 04:38:41;;;;;;;11.10;1.50;;;10.70;99.90;;;;;;5112175;28;20510;-81
2022/11/02 04:43:59;;;;;;;8.48;1.55;;;10.60;99.90;;;;;;5097775;28;20043;-81
2022/11/02 04:46:27;;;;;;;11.52;1.52;;;10.60;99.90;;;;;;5113256;28;20050;-77
2022/11/02 04:48:53;;;;;;;5.88;1.13;;;10.50;99.90;;;;;;5113510;28;20051;-81
2022/11/02 04:51:20;;;;;;;6.63;1.30;;;10.50;99.90;;;;;;5113358;28;20083;-82
2022/11/02 04:53:47;;;;;;;10.80;1.30;;;10.60;99.90;;;;;;5094188;28;20155;-79
2022/11/02 04:56:13;;;;;;;8.10;1.65;;;10.50;99.90;;;;;;5094780;28;20086;-84
2022/11/02 04:58:39;;;;;;;10.15;1.80;;;10.50;99.90;;;;;;5112953;28;20074;-83
2022/11/02 05:01:12;;;;;;;9.50;1.40;;;10.50;99.90;;;;;;5112629;28;20039;-82
2022/11/02 05:03:38;;;;;;;8.88;1.35;;;10.50;99.90;;;;;;5112373;28;20498;-80
2022/11/02 05:06:04;;;;;;;11.35;2.13;;;10.50;99.90;;;;;;5113203;28;20043;-80
2022/11/02 05:08:29;;;;;;;8.05;1.40;;;10.50;99.90;;;;;;5112345;28;20100;-84
2022/11/02 05:10:56;;;;;;;10.38;1.83;;;10.60;99.90;;;;;;5112529;28;20060;-79
2022/11/02 05:13:23;;;;;;;16.00;1.60;;;10.60;99.90;;;;;;5112621;28;20077;-82
2022/11/02 05:15:49;;;;;;;10.68;1.77;;;10.60;99.90;;;;;;5112792;28;20057;-80
2022/11/02 05:18:15;;;;;;;9.13;2.15;;;10.50;99.90;;;;;;5112733;28;20036;-77
2022/11/02 05:20:41;;;;;;;9.65;2.20;;;10.60;99.90;;;;;;5094070;28;20117;-79
2022/11/02 05:23:07;;;;;;;10.20;1.73;;;10.80;99.90;;;;;;5112881;28;20043;-77
2022/11/02 05:25:33;;;;;;;7.70;1.67;;;10.60;99.90;;;;;;5112623;28;20406;-83
2022/11/02 05:27:59;;;;;;;12.00;1.98;;;10.50;99.90;;;;;;5112450;28;20490;-82
2022/11/02 05:30:25;;;;;;;8.93;1.75;;;10.50;99.90;;;;;;5112554;28;20073;-78
2022/11/02 05:32:55;;;;;;;11.50;2.17;;;10.50;99.90;;;;;;5112584;28;20044;-80
2022/11/02 05:35:21;;;;;;;12.70;2.13;;;10.90;99.90;;;;;;5112589;28;20110;-80
2022/11/02 05:37:46;;;;;;;9.43;2.20;;;10.60;99.90;;;;;;5112504;28;20139;-80
2022/11/02 05:40:12;;;;;;;10.02;1.73;;;10.60;99.90;;;;;;5111383;28;20452;-78
2022/11/02 05:42:38;;;;;;;11.93;2.08;;;10.50;99.90;;;;;;5112651;28;20500;-82
2022/11/02 05:45:04;;;;;;;9.48;1.73;;;10.60;99.90;;;;;;5112391;28;20047;-79
2022/11/02 05:47:30;;;;;;;10.80;1.70;;;10.50;99.90;;;;;;5112215;28;20127;-84
2022/11/02 05:49:55;;;;;;;13.80;2.20;;;10.60;99.90;;;;;;5093752;28;20114;-81
2022/11/02 05:52:21;;;;;;;12.43;1.63;;;10.60;99.90;;;;;;5112272;28;20115;-77
2022/11/02 05:54:47;;;;;;;9.73;2.13;;;10.50;99.90;;;;;;5093381;28;20047;-77
2022/11/02 05:57:13;;;;;;;13.55;2.60;;;10.60;99.90;;;;;;5111993;28;20108;-78
2022/11/02 05:59:38;;;;;;;12.95;2.00;;;10.50;99.90;;;;;;5111570;28;20394;-79
2022/11/02 06:02:04;;;;;;;17.92;2.40;;;10.50;99.90;;;;;;5111685;28;20035;-78
2022/11/02 06:04:29;;;;;;;11.80;2.15;;;10.50;99.90;;;;;;5111808;28;20047;-79
2022/11/02 06:06:55;;;;;;;12.18;1.98;;;10.60;99.90;;;;;;5092372;28;20128;-78
2022/11/02 06:09:21;;;;;;;11.25;2.03;;;10.60;99.90;;;;;;5111589;28;20064;-80
2022/11/02 06:11:46;;;;;;;11.73;1.95;;;10.60;99.90;;;;;;5111507;28;20043;-79
2022/11/02 06:14:12;;;;;;;15.00;1.50;;;10.60;99.90;;;;;;5092648;28;20055;-80
2022/11/02 06:16:37;;;;;;;11.93;1.67;;;10.70;99.90;;;;;;5110573;28;20039;-79
2022/11/02 06:19:03;;;;;;;11.32;1.55;;;10.90;99.90;;;;;;5111223;28;20154;-82
2022/11/02 06:21:29;;;;;;;11.25;2.05;;;10.60;99.90;;;;;;5111091;28;20069;-78
2022/11/02 06:23:54;;;;;;;16.08;2.00;;;10.60;99.90;;;;;;5111595;28;20492;-79
2022/11/02 06:26:20;;;;;;;14.02;1.95;;;10.60;99.90;;;;;;5111243;28;20506;-79
2022/11/02 06:28:45;;;;;;;17.33;2.35;;;10.50;99.90;;;;;;5092856;28;20430;-78
2022/11/02 06:31:12;;;;;;;12.90;2.50;;;10.80;99.90;;;;;;5111251;28;20435;-81
2022/11/02 06:33:37;;;;;;;12.60;2.13;;;10.60;99.90;;;;;;5111290;28;20031;-79
2022/11/02 06:36:04;;;;;;;8.85;1.67;;;10.60;99.90;;;;;;5111527;28;20046;-78
2022/11/02 06:38:30;;;;;;;12.20;2.00;;;10.60;99.90;;;;;;5111149;28;20027;-75
2022/11/02 06:41:02;;;;;;;15.50;1.80;;;10.60;99.90;;;;;;5096142;28;20054;-74
2022/11/02 06:43:28;;;;;;;12.60;2.17;;;10.60;99.90;;;;;;5090676;28;20048;-77
2022/11/02 06:45:55;;;;;;;16.30;2.42;;;10.60;99.90;;;;;;5072283;28;20050;-74
2022/11/02 06:48:21;;;;;;;14.43;2.05;;;10.60;99.90;;;;;;5090406;28;20506;-78
2022/11/02 06:50:47;;;;;;;11.07;1.90;;;10.60;99.90;;;;;;5090455;28;20040;-81
2022/11/02 06:53:13;;;;;;;11.02;2.30;;;10.80;99.90;;;;;;5093083;28;20406;-81
2022/11/02 06:55:38;;;;;;;14.48;1.88;;;11.40;99.90;;;;;;5110435;28;20090;-78
2022/11/02 06:58:04;;;;;;;14.13;1.95;;;11.00;99.90;;;;;;5110756;28;20091;-75
2022/11/02 07:00:30;;;;;;;14.40;2.20;;;10.80;99.90;;;;;;5110488;28;20048;-75
2022/11/02 07:03:04;;;;;;;13.55;2.10;;;10.60;99.90;;;;;;5110461;28;20040;-82
2022/11/02 07:05:31;;;;;;;17.38;2.17;;;11.10;99.90;;;;;;5110644;28;20062;-78
2022/11/02 07:07:58;;;;;;;10.55;1.90;;;10.70;99.90;;;;;;5110343;28;20073;-78
2022/11/02 07:10:24;;;;;;;16.95;2.20;;;10.70;99.90;;;;;;5109863;28;20052;-79
2022/11/02 07:12:54;;;;;;;15.50;2.42;;;10.70;99.90;;;;;;5091940;28;20469;-81
2022/11/02 07:15:21;;;;;;;14.13;1.50;;;10.70;99.90;;;;;;5110490;28;20049;-78
2022/11/02 07:17:47;;;;;;;16.15;2.20;;;10.70;99.90;;;;;;5110640;28;20043;-77
2022/11/02 07:20:13;;;;;;;15.90;2.13;;;10.70;99.90;;;;;;5110882;28;20085;-79
2022/11/02 07:22:39;;;;;;;11.13;1.55;;;10.70;99.90;;;;;;5110609;28;20047;-78
2022/11/02 07:25:05;;;;;;;13.57;1.40;;;10.70;99.90;;;;;;5110270;28;20054;-78
2022/11/02 07:27:36;;;;;;;11.45;1.40;;;10.70;99.90;;;;;;5109934;28;20051;-77
2022/11/02 07:30:02;;;;;;;6.55;0.85;;;10.70;99.90;;;;;;5091859;28;20066;-78
2022/11/02 07:32:28;;;;;;;11.73;1.05;;;10.70;99.90;;;;;;5110083;28;20398;-81
2022/11/02 07:34:54;;;;;;;6.35;1.20;;;10.60;99.90;;;;;;5091897;28;20081;-78
2022/11/02 07:37:19;;;;;;;7.80;0.95;;;10.60;99.90;;;;;;5110218;28;20043;-74
2022/11/02 07:39:45;;;;;;;6.78;0.80;;;10.50;99.90;;;;;;5109338;28;20059;-78
2022/11/02 07:42:10;;;;;;;3.03;0.70;;;10.50;99.90;;;;;;5109771;28;20047;-76
2022/11/02 07:44:36;;;;;;;6.40;0.88;;;10.50;99.90;;;;;;5110372;28;20097;-78
2022/11/02 07:47:02;;;;;;;8.10;0.82;;;10.40;99.90;;;;;;5110030;28;20169;-78
2022/11/02 07:49:27;;;;;;;8.35;1.05;;;10.40;99.90;;;;;;5092014;28;20044;-80
2022/11/02 07:51:55;;;;;;;13.00;1.10;;;10.40;99.90;;;;;;5110080;28;20044;-78
2022/11/02 07:54:21;;;;;;;7.35;1.15;;;10.90;99.90;;;;;;5109439;28;20592;-76
2022/11/02 07:56:46;;;;;;;6.68;1.00;;;11.10;99.90;;;;;;5109925;28;20047;-76
2022/11/02 07:59:12;;;;;;;8.07;0.80;;;11.20;99.90;;;;;;5109878;28;20051;-76
2022/11/02 08:01:38;;;;;;;7.35;1.50;;;10.40;99.90;;;;;;5109393;28;20088;-77
2022/11/02 08:04:03;;;;;;;9.25;1.10;;;10.50;99.90;;;;;;5109950;28;20092;-78
2022/11/02 08:06:29;;;;;;;6.40;0.90;;;10.50;99.90;;;;;;5110122;28;20051;-77
2022/11/02 08:08:55;;;;;;;7.75;0.80;;;10.50;99.90;;;;;;5109751;28;20135;-77
2022/11/02 08:11:21;;;;;;;5.80;0.88;;;10.50;99.90;;;;;;5109629;28;20443;-76
2022/11/02 08:13:46;;;;;;;10.52;1.02;;;10.50;99.90;;;;;;5109556;28;20781;-79
2022/11/02 08:16:12;;;;;;;6.63;1.77;;;10.80;99.90;;;;;;5109816;28;20040;-79
2022/11/02 08:18:38;;;;;;;7.60;1.30;;;10.60;99.90;;;;;;5109720;28;20081;-78
2022/11/02 08:21:03;;;;;;;6.35;0.90;;;10.60;99.90;;;;;;5109810;28;20043;-77
2022/11/02 08:23:29;;;;;;;9.35;1.15;;;10.70;99.90;;;;;;5109935;28;20055;-77
2022/11/02 08:25:58;;;;;;;11.80;1.50;;;10.70;99.90;;;;;;5109678;28;20035;-78
2022/11/02 08:28:27;;;;;;;3.90;0.90;;;10.80;99.90;;;;;;5090565;28;20059;-79
2022/11/02 08:30:53;;;;;;;7.45;0.95;;;10.60;99.90;;;;;;5109924;28;20051;-76
2022/11/02 08:33:20;;;;;;;11.20;1.73;;;11.30;99.90;;;;;;5109850;28;20042;-77
2022/11/02 08:35:46;;;;;;;9.13;1.05;;;10.80;99.90;;;;;;5109980;28;20039;-78
2022/11/02 08:38:13;;;;;;;9.85;1.10;;;11.50;99.90;;;;;;5109915;27;20043;-76
2022/11/02 08:40:39;;;;;;;10.23;1.58;;;10.80;99.90;;;;;;5113507;28;20047;-77
2022/11/02 08:43:07;;;;;;;10.43;1.17;;;10.90;99.90;;;;;;5113159;28;20036;-76
2022/11/02 08:45:34;;;;;;;5.68;1.20;;;10.90;99.90;;;;;;5113249;28;20091;-75
2022/11/02 08:48:00;;;;;;;8.05;1.10;;;11.20;99.90;;;;;;5113014;28;20048;-77
2022/11/02 08:50:27;;;;;;;13.10;1.40;;;11.00;99.90;;;;;;5112723;28;20046;-76
2022/11/02 08:52:53;;;;;;;12.55;1.83;;;11.10;99.90;;;;;;5094801;28;20134;-77
2022/11/02 08:55:19;;;;;;;11.02;1.48;;;11.30;99.90;;;;;;5113129;28;20035;-77
2022/11/02 08:57:53;;;;;;;13.98;1.85;;;11.40;99.90;;;;;;5113079;28;20043;-78
2022/11/02 09:00:21;;;;;;;11.60;1.45;;;11.50;99.90;;;;;;5112547;28;20056;-75
2022/11/02 09:03:03;;;;;;;12.95;2.08;;;11.60;99.90;;;;;;5094083;28;20115;-78
2022/11/02 09:05:31;;;;;;;10.63;1.50;;;11.70;99.90;;;;;;5108134;28;20071;-76
2022/11/02 09:08:03;;;;;;;6.70;1.42;;;11.50;99.90;;;;;;5094987;28;20136;-76
2022/11/02 09:10:31;;;;;;;11.20;1.58;;;11.70;99.90;;;;;;5094282;28;20040;-75
2022/11/02 09:12:59;;;;;;;14.98;1.88;;;12.00;99.90;;;;;;5112977;28;20390;-75
2022/11/02 09:15:25;;;;;;;8.93;2.13;;;11.80;99.90;;;;;;5112326;28;20455;-76
2022/11/02 09:17:50;;;;;;;9.93;1.60;;;12.70;99.90;;;;;;5112438;28;20052;-76
2022/11/02 09:20:18;;;;;;;7.40;1.20;;;12.10;99.90;;;;;;5094198;28;20055;-78
2022/11/02 09:22:44;;;;;;;16.40;2.22;;;12.80;99.90;;;;;;5112681;28;20535;-76
2022/11/02 09:25:10;;;;;;;8.40;1.48;;;12.60;99.90;;;;;;5093686;28;20039;-76
2022/11/02 09:27:36;;;;;;;11.50;1.60;;;12.90;99.90;;;;;;5112316;28;20085;-77
2022/11/02 09:30:03;;;;;;;14.77;1.42;;;12.70;99.90;;;;;;5112128;28;20053;-76
2022/11/02 09:32:32;;;;;;;12.52;1.45;;;12.50;99.90;;;;;;5112442;28;20044;-78
2022/11/02 09:34:58;;;;;;;9.50;1.63;;;12.60;99.90;;;;;;5112263;28;20051;-75
2022/11/02 09:37:24;;;;;;;12.15;2.10;;;12.90;99.90;;;;;;5112327;28;20055;-77
2022/11/02 09:39:50;;;;;;;10.80;1.58;;;12.60;99.90;;;;;;5112072;28;20409;-75
2022/11/02 09:42:31;;;;;;;7.43;1.15;;;12.80;99.90;;;;;;5111795;28;20101;-74
2022/11/02 09:45:06;;;;;;;11.88;2.10;;;12.70;99.90;;;;;;5093563;28;20053;-76
2022/11/02 09:47:43;;;;;;;16.08;1.80;;;12.70;99.90;;;;;;5112311;28;20043;-75
2022/11/02 09:50:19;;;;;;;10.25;2.05;;;12.90;99.90;;;;;;5112049;28;20043;-77
2022/11/02 09:52:48;;;;;;;10.35;1.60;;;12.90;99.90;;;;;;5111704;28;20138;-77
2022/11/02 09:55:19;;;;;;;14.60;2.00;;;13.10;99.90;;;;;;5111697;28;20085;-75
2022/11/02 09:57:49;;;;;;;11.02;1.80;;;13.10;99.90;;;;;;5111817;28;20501;-74
2022/11/02 10:00:17;;;;;;;12.13;1.90;;;13.00;99.90;;;;;;5111532;28;20040;-75
2022/11/02 10:03:15;;;;;;;10.35;1.70;;;13.10;99.90;;;;;;5111566;28;20089;-75
2022/11/02 10:06:03;;;;;;;11.00;1.80;;;13.20;99.90;;;;;;5111670;28;20059;-74
2022/11/02 10:08:37;;;;;;;12.95;1.75;;;13.40;99.90;;;;;;5111523;28;20048;-76
2022/11/02 10:11:23;;;;;;;18.10;1.67;;;13.60;99.90;;;;;;5093146;28;20047;-78
2022/11/02 10:14:16;;;;;;;9.93;1.75;;;13.50;99.90;;;;;;5092758;28;20051;-77
2022/11/02 10:16:48;;;;;;;11.45;1.65;;;13.50;99.90;;;;;;5111584;28;20055;-76
2022/11/02 10:19:19;;;;;;;13.50;1.88;;;13.70;99.90;;;;;;5111797;28;20043;-73
2022/11/02 10:21:47;;;;;;;12.85;1.80;;;13.60;99.90;;;;;;5111610;28;20044;-77
2022/11/02 10:24:16;;;;;;;11.60;1.77;;;13.60;99.90;;;;;;5111546;28;20130;-74
2022/11/02 10:26:42;;;;;;;10.82;1.67;;;13.70;99.90;;;;;;5076095;28;20584;-77
2022/11/02 10:29:24;;;;;;;15.13;2.28;;;13.70;99.90;;;;;;5111539;28;20051;-76
2022/11/02 10:31:49;;;;;;;15.57;1.90;;;13.90;99.90;;;;;;5111173;28;20122;-77
2022/11/02 10:34:28;;;;;;;13.38;1.65;;;13.90;99.90;;;;;;5111102;28;20438;-77
2022/11/02 10:37:07;;;;;;;13.73;1.63;;;13.90;99.90;;;;;;5111181;28;20036;-76
2022/11/02 10:39:47;;;;;;;12.27;1.60;;;14.00;99.90;;;;;;5092836;28;20051;-77
2022/11/02 10:42:49;;;;;;;13.40;2.15;;;14.00;99.90;;;;;;5111048;28;20059;-76
2022/11/02 10:45:56;;;;;;;11.93;1.67;;;14.00;99.90;;;;;;5092545;28;20835;-76
2022/11/02 10:48:46;;;;;;;10.90;1.80;;;14.10;99.90;;;;;;5027694;28;20075;-77
2022/11/02 10:51:16;;;;;;;10.70;1.52;;;14.10;99.90;;;;;;5027712;28;20101;-78
2022/11/02 10:53:49;;;;;;;10.20;1.50;;;14.50;99.90;;;;;;5027614;28;20496;-79
2022/11/02 10:56:21;;;;;;;10.50;1.80;;;14.20;99.90;;;;;;5027637;28;20065;-78
2022/11/02 10:58:49;;;;;;;10.93;1.48;;;14.20;99.90;;;;;;5027561;28;20045;-77
2022/11/02 11:01:15;;;;;;;25.35;2.25;;;14.20;99.90;;;;;;5009735;28;20093;-79
2022/11/02 11:04:00;;;;;;;8.30;1.23;;;14.70;99.90;;;;;;5027436;28;20095;-78
2022/11/02 11:06:37;;;;;;;13.13;1.67;;;14.20;99.90;;;;;;5027094;28;20128;-76
2022/11/02 11:09:18;;;;;;;9.88;1.60;;;14.40;99.90;;;;;;5027449;28;20515;-77
2022/11/02 11:11:57;;;;;;;6.40;1.05;;;14.30;99.90;;;;;;5027620;28;20085;-79
2022/11/02 11:14:26;;;;;;;11.27;1.67;;;14.30;99.90;;;;;;5026839;28;20489;-76
2022/11/02 11:16:59;;;;;;;18.10;1.92;;;14.50;99.90;;;;;;5026960;28;20196;-77
2022/11/02 11:19:37;;;;;;;16.67;1.38;;;14.30;99.90;;;;;;5027379;28;20049;-77
2022/11/02 11:22:29;;;;;;;11.60;2.00;;;14.00;99.90;;;;;;5050163;28;20052;-76
2022/11/02 11:25:24;;;;;;;11.52;2.53;;;13.80;99.90;;;;;;5090337;28;20123;-79
2022/11/02 11:27:58;;;;;;;12.95;1.60;;;13.60;99.90;;;;;;5090247;28;20056;-77
2022/11/02 11:30:28;;;;;;;10.93;1.58;;;13.60;99.90;;;;;;5071581;28;20051;-77
2022/11/02 11:32:56;;;;;;;9.35;1.17;;;13.50;99.90;;;;;;5089664;28;20783;-78
2022/11/02 11:35:24;;;;;;;9.13;1.52;;;13.60;99.90;;;;;;5089844;28;20738;-77
2022/11/02 11:38:06;;;;;;;8.52;1.15;;;13.70;99.90;;;;;;5089962;28;20514;-80
2022/11/02 11:40:38;;;;;;;17.00;1.70;;;13.80;99.90;;;;;;5090263;28;20083;-77
2022/11/02 11:43:12;;;;;;;15.13;1.42;;;14.10;99.90;;;;;;5090284;28;20446;-78
2022/11/02 11:45:37;;;;;;;7.40;1.48;;;14.00;99.90;;;;;;5105319;28;20043;-78
2022/11/02 11:48:20;;;;;;;10.55;1.05;;;14.10;99.90;;;;;;5110006;28;20496;-77
2022/11/02 11:50:47;;;;;;;8.63;1.13;;;14.30;99.90;;;;;;5109919;28;20447;-77
2022/11/02 11:53:21;;;;;;;7.82;2.28;;;14.30;99.90;;;;;;5110345;28;20190;-79
2022/11/02 11:55:49;;;;;;;13.93;1.58;;;14.40;99.90;;;;;;5110124;28;20188;-76
2022/11/02 11:58:24;;;;;;;8.48;1.20;;;14.50;99.90;;;;;;5110197;28;20083;-77
2022/11/02 12:01:08;;;;;;;;;;;14.60;99.90;;;;;;5110464;28;20079;-78
2022/11/02 12:03:49;;;;;;;12.43;1.45;;;14.60;99.90;;;;;;5109887;28;19927;-78
2022/11/02 12:06:23;;;;;;;9.93;1.52;;;14.90;99.90;;;;;;5109517;28;20051;-78
2022/11/02 12:08:58;;;;;;;7.07;1.20;;;14.60;99.90;;;;;;5099337;28;20058;-78
2022/11/02 12:12:05;;;;;;;12.27;1.70;;;15.10;99.90;;;;;;5091989;28;20047;-78
2022/11/02 12:15:12;;;;;;;10.45;1.60;;;14.70;99.90;;;;;;5009418;28;20129;-78
2022/11/02 12:17:56;;;;;;;7.35;1.13;;;14.70;99.90;;;;;;4971736;28;20156;-78
2022/11/02 12:20:44;;;;;;;8.57;1.65;;;14.80;99.90;;;;;;4971896;28;20683;-81
2022/11/02 12:23:47;;;;;;;15.07;1.80;;;14.80;99.90;;;;;;4955263;28;20607;-78
2022/11/02 12:26:19;;;;;;;8.52;1.63;;;14.70;99.90;;;;;;4933478;29;20047;-78
2022/11/02 12:29:20;;;;;;;10.52;1.52;;;14.70;99.90;;;;;;4933153;29;20060;-77
2022/11/02 12:32:17;;;;;;;10.32;1.40;;;14.80;99.90;;;;;;4930087;29;20527;-79
2022/11/02 12:35:16;;;;;;;7.68;1.92;;;14.90;99.90;;;;;;4908693;29;20830;-79
2022/11/02 12:37:56;;;;;;;12.75;1.70;;;14.90;99.90;;;;;;4914220;29;20444;-79
2022/11/02 12:40:59;;;;;;;15.07;2.58;;;15.10;99.90;;;;;;4914209;29;20075;-78
2022/11/02 12:43:46;;;;;;;10.27;1.40;;;15.10;99.90;;;;;;4895293;29;20901;-78
2022/11/02 12:46:25;;;;;;;9.30;1.45;;;15.10;99.90;;;;;;4895313;29;20163;-79
2022/11/02 12:49:10;;;;;;;10.15;1.58;;;15.00;99.90;;;;;;4895272;29;20393;-79
2022/11/02 12:51:44;;;;;;;11.40;1.70;;;15.00;99.90;;;;;;4980081;28;20593;-76
2022/11/02 12:54:14;;;;;;;12.15;1.80;;;15.00;99.90;;;;;;4987707;28;20061;-78
2022/11/02 12:56:49;;;;;;;9.70;1.80;;;15.10;99.90;;;;;;5004497;28;20524;-80
2022/11/02 12:59:27;;;;;;;11.25;1.15;;;14.90;99.90;;;;;;5038984;28;20124;-79
2022/11/02 13:02:20;;;;;;;14.43;1.70;;;14.70;99.90;;;;;;5105354;28;20047;-80
2022/11/02 13:04:58;;;;;;;12.38;1.48;;;14.50;99.90;;;;;;5112900;28;20546;-78
2022/11/02 13:07:30;;;;;;;9.27;1.58;;;14.30;99.90;;;;;;5113228;28;20451;-78
2022/11/02 13:10:20;;;;;;;8.05;1.48;;;14.30;99.90;;;;;;5112961;28;20052;-78
2022/11/02 13:12:51;;;;;;;13.63;1.60;;;14.40;99.90;;;;;;5112757;28;20406;-77
2022/11/02 13:15:21;;;;;;;12.30;1.50;;;14.60;99.90;;;;;;5113126;28;20428;-77
2022/11/02 13:17:55;;;;;;;12.95;1.50;;;14.90;99.90;;;;;;5113051;28;20039;-80